Time;durP1;ratioP1;P1;durP2;ratioP2;P2;SDS_P1;SDS_P2;PMS_P1;PMS_P2;Temp;Humidity;BMP_temperature;BMP_pressure;BME280_temperature;BME280_humidity;BME280_pressure;Samples;Min_cycle;Max_cycle;Signal;HPM_P1;HPM_P2
2023/01/04 00:02:02;;;;;;;7.18;5.00;;;;;;;1.34;100.00;100270.81;5106333;28;20052;-79
2023/01/04 00:04:28;;;;;;;7.75;4.85;;;;;;;1.55;100.00;100312.34;5107123;28;20046;-79
2023/01/04 00:06:55;;;;;;;7.90;5.15;;;;;;;1.55;100.00;100308.78;5102518;28;20388;-79
2023/01/04 00:09:22;;;;;;;9.25;5.35;;;;;;;1.55;100.00;100281.97;5102211;28;20402;-79
2023/01/04 00:11:50;;;;;;;8.90;5.53;;;;;;;1.49;100.00;100272.53;5105551;28;20048;-79
2023/01/04 00:14:17;;;;;;;8.43;5.35;;;;;;;1.61;100.00;100291.44;5103577;28;20062;-79
2023/01/04 00:16:44;;;;;;;9.20;5.63;;;;;;;1.36;100.00;100277.81;5106559;28;20092;-79
2023/01/04 00:19:12;;;;;;;8.98;5.65;;;;;;;1.40;100.00;100297.22;5109855;27;20052;-79
2023/01/04 00:21:39;;;;;;;10.75;5.22;;;;;;;1.23;100.00;100292.94;5103079;28;20101;-79
2023/01/04 00:24:07;;;;;;;7.90;4.85;;;;;;;1.03;100.00;100268.28;5104587;28;20047;-79
2023/01/04 00:26:35;;;;;;;7.55;4.97;;;;;;;1.06;100.00;100283.31;5103228;28;20050;-79
2023/01/04 00:29:05;;;;;;;9.68;5.10;;;;;;;1.16;100.00;100272.84;5099614;28;20043;-79
2023/01/04 00:31:32;;;;;;;8.27;5.68;;;;;;;1.17;100.00;100266.53;5106821;28;20055;-79
2023/01/04 00:34:01;;;;;;;15.88;6.43;;;;;;;1.06;100.00;100235.94;5104853;28;20055;-79
2023/01/04 00:36:28;;;;;;;9.95;6.00;;;;;;;1.18;100.00;100228.94;5105310;28;20664;-79
2023/01/04 00:39:06;;;;;;;8.15;5.68;;;;;;;1.22;100.00;100208.19;5098188;28;20036;-79
2023/01/04 00:41:34;;;;;;;9.20;6.35;;;;;;;1.28;100.00;100212.28;5102766;28;20468;-79
2023/01/04 00:44:03;;;;;;;11.30;6.20;;;;;;;1.27;100.00;100221.28;5105598;28;20052;-79
2023/01/04 00:46:30;;;;;;;10.02;6.05;;;;;;;1.30;100.00;100229.97;5107950;28;20059;-79
2023/01/04 00:48:56;;;;;;;10.38;6.32;;;;;;;1.43;100.00;100224.69;5105229;28;20438;-79
2023/01/04 00:51:23;;;;;;;16.55;7.13;;;;;;;1.41;100.00;100211.38;5106197;28;20047;-79
2023/01/04 00:53:50;;;;;;;8.02;4.88;;;;;;;1.47;100.00;100215.47;5099924;27;20056;-80
2023/01/04 00:56:16;;;;;;;11.27;6.53;;;;;;;1.47;100.00;100212.78;5107220;28;20054;-78
2023/01/04 00:58:43;;;;;;;9.30;5.93;;;;;;;1.57;100.00;100232.66;5102685;28;20044;-78
2023/01/04 01:01:11;;;;;;;12.00;6.15;;;;;;;1.52;100.00;100225.88;5106923;28;20483;-78
2023/01/04 01:03:38;;;;;;;11.45;6.03;;;;;;;1.35;100.00;100214.44;5110285;28;20407;-78
2023/01/04 01:06:06;;;;;;;9.30;5.90;;;;;;;1.53;100.00;100241.88;5106858;27;20056;-78
2023/01/04 01:08:33;;;;;;;11.25;5.80;;;;;;;1.41;100.00;100226.59;5115765;27;20044;-78
2023/01/04 01:11:04;;;;;;;9.35;5.88;;;;;;;1.38;100.00;100240.19;5105724;27;20612;-79
2023/01/04 01:13:31;;;;;;;11.23;5.85;;;;;;;1.33;100.00;100218.22;5105912;28;20596;-79
2023/01/04 01:16:03;;;;;;;8.50;5.35;;;;;;;1.29;100.00;100214.84;5104528;28;20510;-79
2023/01/04 01:18:31;;;;;;;9.75;6.55;;;;;;;1.54;100.00;100258.81;5090512;28;20048;-78
2023/01/04 01:20:57;;;;;;;10.38;5.57;;;;;;;1.53;100.00;100251.72;5107878;28;20052;-79
2023/01/04 01:23:24;;;;;;;7.88;5.65;;;;;;;1.47;100.00;100257.50;5108159;27;20044;-78
2023/01/04 01:25:50;;;;;;;9.70;5.35;;;;;;;1.37;100.00;100271.50;5111239;27;20157;-78
2023/01/04 01:28:17;;;;;;;8.93;5.85;;;;;;;1.37;100.00;100254.53;5108227;28;20139;-78
2023/01/04 01:30:44;;;;;;;9.18;5.18;;;;;;;1.37;100.00;100263.47;5111859;27;20051;-78
2023/01/04 01:33:10;;;;;;;9.05;5.57;;;;;;;1.30;100.00;100261.28;5109469;28;20060;-78
2023/01/04 01:35:38;;;;;;;9.43;5.28;;;;;;;1.05;100.00;100244.06;5107895;28;20044;-78
2023/01/04 01:38:05;;;;;;;9.10;5.20;;;;;;;1.25;100.00;100280.31;5102688;28;20058;-79
2023/01/04 01:40:31;;;;;;;8.63;5.03;;;;;;;1.09;100.00;100253.66;5110457;27;20039;-78
2023/01/04 01:42:58;;;;;;;11.65;5.55;;;;;;;1.18;100.00;100279.00;5108673;27;20062;-78
2023/01/04 01:45:29;;;;;;;7.80;4.97;;;;;;;0.96;100.00;100250.88;5103862;28;20052;-78
2023/01/04 01:48:00;;;;;;;9.40;5.60;;;;;;;0.90;100.00;100231.66;5111204;28;20411;-78
2023/01/04 01:50:32;;;;;;;8.95;5.20;;;;;;;0.90;100.00;100235.19;5107728;28;20080;-78
2023/01/04 01:53:00;;;;;;;10.23;5.63;;;;;;;1.13;100.00;100265.88;5097944;28;20422;-78
2023/01/04 01:55:30;;;;;;;8.30;4.90;;;;;;;1.21;100.00;100260.91;5108954;28;20486;-78
2023/01/04 01:58:00;;;;;;;8.05;5.00;;;;;;;1.09;100.00;100218.81;5109006;27;20070;-78
2023/01/04 02:00:28;;;;;;;11.95;4.55;;;;;;;1.32;100.00;100237.91;5115263;27;21455;-78
2023/01/04 02:03:02;;;;;;;6.38;4.32;;;;;;;1.31;100.00;100233.50;5106587;28;20567;-78
2023/01/04 02:05:31;;;;;;;11.75;4.93;;;;;;;1.36;100.00;100247.47;5100775;28;20210;-78
2023/01/04 02:07:57;;;;;;;8.90;4.55;;;;;;;1.27;100.00;100232.00;5108909;28;20051;-78
2023/01/04 02:10:26;;;;;;;5.72;3.83;;;;;;;1.11;100.00;100226.75;5106214;28;20046;-78
2023/01/04 02:12:52;;;;;;;7.50;4.22;;;;;;;1.21;100.00;100242.13;5106795;28;20048;-78
2023/01/04 02:15:21;;;;;;;6.63;4.43;;;;;;;1.11;100.00;100210.69;5104949;27;20130;-78
2023/01/04 02:17:55;;;;;;;6.60;4.35;;;;;;;1.26;100.00;100230.28;5109215;27;20214;-78
2023/01/04 02:20:31;;;;;;;10.55;4.57;;;;;;;1.42;100.00;100239.03;5097354;28;20066;-78
2023/01/04 02:23:32;;;;;;;9.20;4.20;;;;;;;1.53;100.00;100235.66;5097473;28;20490;-78
2023/01/04 02:26:33;;;;;;;9.10;4.43;;;;;;;1.30;100.00;100194.31;5095231;28;20054;-78
2023/01/04 02:29:22;;;;;;;5.97;4.53;;;;;;;1.29;100.00;100192.56;5101758;28;20039;-78
2023/01/04 02:31:53;;;;;;;10.35;4.45;;;;;;;1.40;100.00;100216.81;5099258;28;20043;-78
2023/01/04 02:34:28;;;;;;;8.60;3.92;;;;;;;1.28;100.00;100185.47;5111037;27;20138;-78
2023/01/04 02:36:59;;;;;;;6.63;3.97;;;;;;;1.45;100.00;100213.88;5096258;27;20063;-78
2023/01/04 02:39:38;;;;;;;8.60;4.28;;;;;;;1.53;100.00;100223.09;5101897;28;20406;-78
2023/01/04 02:42:12;;;;;;;5.55;3.50;;;;;;;1.40;100.00;100196.25;5097390;28;20044;-78
2023/01/04 02:44:53;;;;;;;8.20;3.95;;;;;;;1.31;100.00;100180.81;5104512;28;20157;-78
2023/01/04 02:53:04;;;;;;;6.05;3.67;;;;;;;1.56;100.00;100190.72;5093554;28;20542;-78
2023/01/04 02:55:47;;;;;;;5.13;3.78;;;;;;;1.61;100.00;100197.63;5106034;28;20051;-78
2023/01/04 02:58:28;;;;;;;7.68;3.92;;;;;;;1.34;100.00;100152.94;5105636;27;20054;-78
2023/01/04 03:06:54;;;;;;;5.68;3.28;;;;;;;1.35;100.00;100155.50;5109300;27;20055;-78
2023/01/04 03:09:27;;;;;;;9.38;4.63;;;;;;;1.48;100.00;100176.16;5097827;28;20069;-77
2023/01/04 03:14:48;;;;;;;6.68;3.92;;;;;;;1.41;100.00;100162.28;5105302;28;20130;-78
2023/01/04 03:17:19;;;;;;;6.28;3.83;;;;;;;1.24;100.00;100152.69;5101357;28;20047;-78
2023/01/04 03:19:53;;;;;;;5.85;3.53;;;;;;;1.24;100.00;100131.25;5098544;28;20142;-78
2023/01/04 03:36:31;;;;;;;7.80;4.22;;;;;;;0.98;100.00;100124.91;5091908;28;20089;-77
2023/01/04 03:50:22;;;;;;;6.72;4.28;;;;;;;1.47;100.00;100143.13;5111239;28;20123;-78
2023/01/04 03:52:53;;;;;;;8.95;4.40;;;;;;;1.54;100.00;100151.63;5090743;28;20043;-78
2023/01/04 03:55:21;;;;;;;6.70;4.32;;;;;;;1.55;100.00;100138.13;5102915;28;20048;-78
2023/01/04 03:57:48;;;;;;;9.85;4.00;;;;;;;1.42;100.00;100124.66;5104676;28;20100;-78
2023/01/04 04:00:18;;;;;;;5.13;3.92;;;;;;;1.56;100.00;100131.78;5110571;28;20398;-78
2023/01/04 04:02:46;;;;;;;8.70;3.40;;;;;;;1.49;100.00;100117.09;5110452;28;20407;-78
2023/01/04 04:10:47;;;;;;;6.43;3.60;;;;;;;1.59;100.00;100115.47;5108251;28;20046;-78
2023/01/04 04:13:14;;;;;;;5.85;3.78;;;;;;;1.48;100.00;100096.59;5110130;28;20055;-78
2023/01/04 04:15:40;;;;;;;5.47;3.67;;;;;;;1.52;100.00;100108.84;5108810;28;21328;-78
2023/01/04 04:18:07;;;;;;;7.75;3.80;;;;;;;1.66;100.00;100118.63;5110988;28;20547;-78
2023/01/04 04:20:33;;;;;;;5.82;3.83;;;;;;;1.81;100.00;100134.59;5110631;28;20054;-78
2023/01/04 04:23:00;;;;;;;7.63;4.00;;;;;;;1.71;100.00;100126.34;5110164;28;20082;-78
2023/01/04 04:25:28;;;;;;;6.20;4.03;;;;;;;1.71;100.00;100094.16;5109269;28;20048;-78
2023/01/04 04:27:54;;;;;;;7.22;3.72;;;;;;;1.70;100.00;100090.66;5106442;28;20051;-78
2023/01/04 04:30:21;;;;;;;9.75;4.70;;;;;;;1.70;100.00;100089.75;5090507;28;20040;-78
2023/01/04 04:32:47;;;;;;;7.97;4.90;;;;;;;1.99;100.00;100124.44;5090070;28;20503;-78
2023/01/04 04:35:14;;;;;;;7.38;4.38;;;;;;;1.99;100.00;100111.91;5090015;28;20056;-78
2023/01/04 04:37:40;;;;;;;7.03;3.53;;;;;;;2.02;100.00;100106.31;5110992;28;20052;-78
2023/01/04 04:41:37;;;;;;;7.28;4.03;;;;;;;1.97;100.00;100092.34;5114187;28;20051;-78
2023/01/04 04:42:55;;;;;;;7.80;3.67;;;;;;;2.13;100.00;100110.94;5107044;28;20138;-78
2023/01/04 04:45:21;;;;;;;6.00;3.53;;;;;;;2.07;100.00;100104.16;5108539;28;20483;-78
2023/01/04 04:47:48;;;;;;;6.10;3.85;;;;;;;1.90;100.00;100078.53;5110086;28;20521;-78
2023/01/04 04:50:15;;;;;;;7.47;3.63;;;;;;;1.95;100.00;100075.53;5112151;28;20044;-78
2023/01/04 04:52:41;;;;;;;7.35;4.05;;;;;;;2.18;100.00;100097.19;5113209;28;20043;-78
2023/01/04 04:55:08;;;;;;;7.88;3.65;;;;;;;2.15;100.00;100087.53;5114183;28;20055;-78
2023/01/04 04:57:35;;;;;;;6.30;3.80;;;;;;;2.20;100.00;100076.47;5110839;28;20055;-78
2023/01/04 05:00:03;;;;;;;7.00;3.63;;;;;;;2.28;100.00;100082.16;5113648;28;20047;-78
2023/01/04 05:02:30;;;;;;;9.88;4.05;;;;;;;2.29;100.00;100082.06;5107326;28;20488;-78
2023/01/04 05:04:56;;;;;;;6.72;3.33;;;;;;;2.32;100.00;100078.31;5093798;28;20137;-78
2023/01/04 05:07:23;;;;;;;7.38;3.60;;;;;;;2.38;100.00;100093.06;5107819;28;20050;-78
2023/01/04 05:09:49;;;;;;;7.60;3.83;;;;;;;2.30;100.00;100061.44;5114296;28;20056;-78
2023/01/04 05:15:04;;;;;;;4.78;3.38;;;;;;;2.46;100.00;100077.31;5092895;28;20047;-78
2023/01/04 05:17:30;;;;;;;6.38;3.50;;;;;;;2.50;100.00;100080.59;5111668;28;20051;-78
2023/01/04 05:19:57;;;;;;;7.75;3.17;;;;;;;2.51;100.00;100080.50;5113127;28;20047;-78
2023/01/04 05:22:23;;;;;;;5.20;3.03;;;;;;;2.54;100.00;100076.75;5113000;28;20052;-78
2023/01/04 05:24:50;;;;;;;6.75;3.30;;;;;;;2.51;100.00;100071.59;5113933;28;20058;-78
2023/01/04 05:27:16;;;;;;;7.07;3.13;;;;;;;2.46;100.00;100058.50;5104110;28;20077;-78
2023/01/04 05:32:28;;;;;;;4.15;3.08;;;;;;;2.49;100.00;100047.56;5109820;28;20104;-78
2023/01/04 05:34:55;;;;;;;6.32;3.85;;;;;;;2.57;100.00;100057.72;5113218;28;20047;-78
2023/01/04 05:37:21;;;;;;;5.55;3.17;;;;;;;2.83;100.00;100083.53;5111482;28;20471;-78
2023/01/04 05:39:48;;;;;;;6.22;2.97;;;;;;;2.77;100.00;100069.69;5113325;28;20044;-78
2023/01/04 05:42:26;;;;;;;6.47;3.50;;;;;;;2.76;100.00;100076.03;5112458;28;20133;-78
2023/01/04 05:44:54;;;;;;;3.97;2.55;;;;;;;2.91;100.00;100084.81;5107392;28;20092;-78
2023/01/04 05:47:21;;;;;;;5.82;3.15;;;;;;;2.75;100.00;100048.31;5101936;28;20044;-78
2023/01/04 05:49:49;;;;;;;6.07;2.85;;;;;;;2.92;100.00;100084.69;5108468;28;20044;-78
2023/01/04 05:52:16;;;;;;;5.15;3.13;;;;;;;2.91;100.00;100071.38;5108784;28;20119;-78
2023/01/04 05:54:43;;;;;;;6.43;3.35;;;;;;;2.85;100.00;100061.94;5108644;28;20067;-78
2023/01/04 05:57:10;;;;;;;6.15;2.85;;;;;;;2.92;100.00;100073.94;5106760;28;20534;-78
2023/01/04 05:59:37;;;;;;;6.22;2.78;;;;;;;2.81;100.00;100047.00;5113055;28;20070;-78
2023/01/04 06:02:07;;;;;;;5.32;2.80;;;;;;;2.99;100.00;100064.44;5112256;28;20047;-78
2023/01/04 06:04:33;;;;;;;9.27;3.25;;;;;;;2.92;100.00;100062.31;5112977;28;20063;-79
2023/01/04 06:07:01;;;;;;;6.10;2.95;;;;;;;2.99;100.00;100058.22;5105953;28;20053;-79
2023/01/04 06:09:28;;;;;;;4.45;3.20;;;;;;;3.13;100.00;100066.13;5112623;28;20043;-78
2023/01/04 06:11:54;;;;;;;10.75;2.67;;;;;;;2.96;100.00;100040.50;5111922;28;20051;-79
2023/01/04 06:14:21;;;;;;;6.22;2.92;;;;;;;3.27;100.00;100069.59;5112000;28;20052;-79
2023/01/04 06:16:47;;;;;;;3.95;2.40;;;;;;;3.22;100.00;100064.53;5111489;28;20051;-79
2023/01/04 06:19:14;;;;;;;6.95;2.55;;;;;;;3.22;100.00;100052.94;5112506;28;20074;-79
2023/01/04 06:21:40;;;;;;;7.10;2.65;;;;;;;3.26;100.00;100051.75;5112557;28;20068;-79
2023/01/04 06:24:11;;;;;;;4.43;2.55;;;;;;;3.32;100.00;100052.13;5107342;28;20055;-79
2023/01/04 06:26:37;;;;;;;3.35;2.33;;;;;;;3.33;100.00;100034.19;5106287;28;20044;-78
2023/01/04 06:29:04;;;;;;;4.50;2.53;;;;;;;3.27;100.00;100035.50;5097849;28;20061;-79
2023/01/04 06:31:32;;;;;;;3.35;2.72;;;;;;;3.39;100.00;100039.09;5111580;28;20043;-79
2023/01/04 06:33:58;;;;;;;5.45;2.70;;;;;;;3.50;100.00;100032.88;5104058;28;20083;-79
2023/01/04 06:36:25;;;;;;;3.78;2.25;;;;;;;3.50;100.00;100027.50;5108398;28;20054;-78
2023/01/04 06:38:52;;;;;;;11.60;2.85;;;;;;;3.51;100.00;100027.38;5111727;28;20063;-78
2023/01/04 06:41:20;;;;;;;3.22;2.20;;;;;;;3.53;100.00;100016.50;5108293;28;20051;-78
2023/01/04 06:43:46;;;;;;;3.20;2.20;;;;;;;3.63;100.00;100030.97;5098827;28;20048;-78
2023/01/04 06:46:13;;;;;;;4.45;2.40;;;;;;;3.62;100.00;100023.88;5106931;28;20055;-78
2023/01/04 06:48:39;;;;;;;5.20;2.60;;;;;;;3.64;100.00;100029.13;5098779;28;20058;-78
2023/01/04 06:51:06;;;;;;;6.13;2.28;;;;;;;3.63;100.00;100024.72;5104139;28;20131;-78
2023/01/04 06:53:32;;;;;;;4.15;2.40;;;;;;;3.64;100.00;100019.22;5103007;28;20043;-78
2023/01/04 06:55:59;;;;;;;4.35;2.30;;;;;;;3.63;100.00;100019.34;5108626;28;20043;-78
2023/01/04 06:58:27;;;;;;;5.45;2.47;;;;;;;3.69;100.00;100017.03;5106821;28;20047;-78
2023/01/04 07:00:55;;;;;;;6.80;2.22;;;;;;;3.79;100.00;100027.91;5105401;28;20052;-78
2023/01/04 07:03:21;;;;;;;3.38;2.25;;;;;;;3.78;100.00;100026.22;5099281;28;20058;-78
2023/01/04 07:05:49;;;;;;;4.18;2.65;;;;;;;3.79;100.00;100003.72;5102289;28;20060;-78
2023/01/04 07:08:16;;;;;;;3.38;2.10;;;;;;;3.85;100.00;100030.16;5096833;28;20052;-78
2023/01/04 07:10:43;;;;;;;4.25;2.33;;;;;;;3.87;100.00;100003.13;5107649;28;20506;-78
2023/01/04 07:13:09;;;;;;;3.95;2.55;;;;;;;3.96;100.00;100023.03;5104830;28;20047;-78
2023/01/04 07:15:38;;;;;;;6.95;2.47;;;;;;;3.92;100.00;100008.16;5110354;28;20055;-78
2023/01/04 07:18:04;;;;;;;5.05;2.53;;;;;;;4.00;100.00;100014.59;5101462;28;20067;-78
2023/01/04 07:20:31;;;;;;;4.20;2.33;;;;;;;4.13;100.00;100032.50;5109500;28;20062;-78
2023/01/04 07:22:58;;;;;;;3.53;1.90;;;;;;;4.18;100.00;100041.03;5100460;28;20048;-78
2023/01/04 07:25:24;;;;;;;9.43;2.08;;;;;;;4.22;100.00;100048.75;5107550;28;20047;-78
2023/01/04 07:27:52;;;;;;;4.43;2.20;;;;;;;4.21;100.00;100038.94;5108449;28;20055;-78
2023/01/04 07:30:19;;;;;;;3.25;2.17;;;;;;;4.13;100.00;100024.41;5108884;28;20043;-78
2023/01/04 07:32:47;;;;;;;9.20;2.63;;;;;;;4.18;100.00;100020.34;5107446;28;20082;-78
2023/01/04 07:35:13;;;;;;;10.65;2.30;;;;;;;4.06;100.00;100007.88;5104008;28;20062;-78
2023/01/04 07:37:40;;;;;;;2.63;1.60;;;;;;;4.10;100.00;100014.75;5107633;28;20051;-78
2023/01/04 07:40:07;;;;;;;3.17;1.92;;;;;;;4.10;100.00;100009.38;5110984;28;20509;-78
2023/01/04 07:42:34;;;;;;;2.75;1.88;;;;;;;4.14;100.00;100010.84;5104295;28;20122;-78
2023/01/04 07:45:00;;;;;;;4.53;2.00;;;;;;;4.13;100.00;100019.88;5110793;28;20051;-78
2023/01/04 07:47:27;;;;;;;3.28;2.22;;;;;;;4.20;100.00;100029.19;5109004;28;20043;-78
2023/01/04 07:49:55;;;;;;;3.35;2.00;;;;;;;4.26;100.00;100019.78;5110802;28;20131;-78
2023/01/04 07:52:22;;;;;;;4.18;1.80;;;;;;;4.12;100.00;99996.63;5106343;28;20059;-78
2023/01/04 07:54:49;;;;;;;3.70;1.90;;;;;;;4.10;100.00;99995.91;5110767;28;20453;-78
2023/01/04 07:57:15;;;;;;;2.15;1.73;;;;;;;4.23;100.00;100009.22;5105065;28;20491;-78
2023/01/04 07:59:42;;;;;;;2.20;1.45;;;;;;;4.06;100.00;99975.59;5098300;28;20040;-78
2023/01/04 08:02:10;;;;;;;3.05;1.67;;;;;;;4.10;100.00;99981.59;5102476;28;20059;-78
2023/01/04 08:04:37;;;;;;;4.13;2.10;;;;;;;4.29;100.00;100007.88;5103085;28;20040;-78
2023/01/04 08:07:05;;;;;;;1.98;1.58;;;;;;;4.28;100.00;100011.56;5110572;28;20407;-79
2023/01/04 08:09:31;;;;;;;3.13;2.25;;;;;;;4.25;100.00;99999.22;5102119;28;20098;-79
2023/01/04 08:11:58;;;;;;;3.65;2.05;;;;;;;4.11;100.00;99978.78;5111731;28;20122;-79
2023/01/04 08:14:25;;;;;;;2.92;1.77;;;;;;;4.24;100.00;100000.16;5110090;28;20392;-79
2023/01/04 08:16:51;;;;;;;3.38;1.75;;;;;;;4.24;100.00;100006.41;5114443;28;20154;-78
2023/01/04 08:19:20;;;;;;;4.00;2.13;;;;;;;4.19;100.00;99987.09;5107234;28;20047;-79
2023/01/04 08:21:47;;;;;;;3.92;2.17;;;;;;;4.11;100.00;99964.47;5114341;28;20105;-78
2023/01/04 08:24:18;;;;;;;2.85;1.98;;;;;;;4.33;100.00;99995.88;5111206;28;20047;-78
2023/01/04 08:26:45;;;;;;;3.03;1.67;;;;;;;4.17;100.00;99983.69;5112017;28;20039;-78
2023/01/04 08:29:12;;;;;;;3.85;1.50;;;;;;;4.29;100.00;99975.56;5107178;28;20051;-78
2023/01/04 08:31:39;;;;;;;3.40;1.85;;;;;;;4.39;100.00;99990.00;5105109;28;20055;-78
2023/01/04 08:34:09;;;;;;;3.45;1.63;;;;;;;4.35;100.00;99975.94;5104918;28;20050;-78
2023/01/04 08:36:44;;;;;;;3.03;1.42;;;;;;;4.46;100.00;99987.66;5101080;28;20054;-78
2023/01/04 08:39:10;;;;;;;2.33;1.35;;;;;;;4.40;100.00;99965.66;5107809;28;20058;-79
2023/01/04 08:41:50;;;;;;;3.45;1.85;;;;;;;4.52;100.00;99977.25;5098665;28;20060;-79
2023/01/04 08:44:17;;;;;;;2.90;1.30;;;;;;;4.58;100.00;99979.44;5094995;28;20044;-80
2023/01/04 08:46:44;;;;;;;4.57;1.80;;;;;;;4.60;100.00;99955.06;5094886;28;20098;-80
2023/01/04 08:49:10;;;;;;;2.80;1.50;;;;;;;4.63;100.00;99948.59;5099620;28;20055;-79
2023/01/04 08:51:37;;;;;;;3.40;1.70;;;;;;;4.81;100.00;99965.06;5106998;28;20048;-78
2023/01/04 08:54:04;;;;;;;3.58;1.20;;;;;;;4.82;100.00;99950.56;5097100;28;20048;-77
2023/01/04 08:56:31;;;;;;;1.98;1.60;;;;;;;4.83;100.00;99945.06;5129135;27;20107;-78
2023/01/04 08:59:00;;;;;;;3.17;1.50;;;;;;;4.75;100.00;99942.16;5127819;27;20048;-78
2023/01/04 09:01:26;;;;;;;2.40;1.63;;;;;;;4.79;100.00;99957.94;5102387;28;20052;-78
2023/01/04 09:03:54;;;;;;;3.75;1.67;;;;;;;4.78;100.00;99939.22;5112790;28;20043;-78
2023/01/04 09:06:21;;;;;;;5.88;1.50;;;;;;;4.71;100.00;99940.69;5104193;28;20050;-78
2023/01/04 09:08:48;;;;;;;5.20;1.58;;;;;;;4.87;100.00;99968.06;5115112;28;20130;-77
2023/01/04 09:11:16;;;;;;;3.25;1.60;;;;;;;4.76;100.00;99943.88;5107257;28;20051;-78
2023/01/04 09:13:43;;;;;;;3.63;1.42;;;;;;;4.94;100.00;99955.81;5095554;28;20055;-78
2023/01/04 09:16:13;;;;;;;6.18;1.73;;;;;;;4.79;100.00;99938.25;5096496;28;20138;-78
2023/01/04 09:18:40;;;;;;;2.35;1.17;;;;;;;4.90;100.00;99948.09;5094651;28;20056;-78
2023/01/04 09:21:07;;;;;;;3.25;1.63;;;;;;;4.92;100.00;99943.44;5098482;28;20051;-79
2023/01/04 09:23:34;;;;;;;2.25;1.33;;;;;;;5.04;100.00;99955.00;5098029;28;20066;-78
2023/01/04 09:26:05;;;;;;;3.47;1.80;;;;;;;5.17;100.00;99974.56;5098746;28;20048;-78
2023/01/04 09:28:31;;;;;;;5.90;1.75;;;;;;;5.08;100.00;99954.63;5098780;28;20135;-78
2023/01/04 09:30:58;;;;;;;4.35;1.58;;;;;;;5.22;100.00;99972.31;5098695;28;20051;-79
2023/01/04 09:33:26;;;;;;;1.50;1.20;;;;;;;5.18;100.00;99938.53;5095217;28;20048;-80
2023/01/04 09:35:53;;;;;;;4.55;1.92;;;;;;;5.25;100.00;99941.56;5096664;28;20055;-79
2023/01/04 09:38:29;;;;;;;;;;;;;;;;;;;;;
2023/01/04 09:41:05;;;;;;;2.75;1.42;;;;;;;5.33;100.00;99941.75;5095061;28;20056;-79
2023/01/04 09:43:39;;;;;;;1.50;1.40;;;;;;;5.32;100.00;99935.50;5099632;28;20058;-79
2023/01/04 09:46:11;;;;;;;2.88;1.50;;;;;;;5.39;100.00;99945.75;5100649;28;20060;-79
2023/01/04 09:48:42;;;;;;;3.10;1.25;;;;;;;5.48;100.00;99951.22;5096526;28;20067;-78
2023/01/04 09:51:14;;;;;;;3.38;1.30;;;;;;;5.40;100.00;99942.91;5092560;28;20054;-79
2023/01/04 09:53:44;;;;;;;2.28;1.20;;;;;;;5.49;100.00;99950.25;5095970;28;20069;-78
2023/01/04 09:56:20;;;;;;;4.32;1.70;;;;;;;5.50;100.00;99934.91;5098055;28;20051;-78
2023/01/04 09:58:47;;;;;;;3.35;1.40;;;;;;;5.49;100.00;99925.09;5096004;28;20051;-79
2023/01/04 10:01:18;;;;;;;6.80;1.83;;;;;;;5.55;100.00;99911.06;5098482;28;20479;-79
2023/01/04 10:03:55;;;;;;;2.60;1.40;;;;;;;5.70;100.00;99925.06;5100707;28;20044;-78
2023/01/04 10:06:21;;;;;;;4.38;1.92;;;;;;;5.68;100.00;99900.06;5096100;28;20070;-79
2023/01/04 10:08:48;;;;;;;3.58;2.05;;;;;;;5.67;100.00;99882.16;5100119;28;20058;-79
2023/01/04 10:11:41;;;;;;;4.05;1.40;;;;;;;5.95;100.00;99895.91;5099848;28;20047;-79
2023/01/04 10:14:21;;;;;;;3.70;2.65;;;;;;;5.87;100.00;99879.53;5099978;28;20451;-76
2023/01/04 10:17:05;;;;;;;7.15;1.63;;;;;;;5.94;100.00;99878.84;5093474;28;20051;-78
2023/01/04 10:19:47;;;;;;;2.08;1.35;;;;;;;6.09;100.00;99892.00;5104449;28;20052;-78
2023/01/04 10:22:21;;;;;;;3.17;1.55;;;;;;;6.09;100.00;99886.59;5103684;28;20055;-78
2023/01/04 10:24:59;;;;;;;3.72;1.75;;;;;;;6.05;100.00;99868.97;5102553;28;20055;-78
2023/01/04 10:27:36;;;;;;;5.47;1.40;;;;;;;6.25;100.00;99900.41;5102691;28;20483;-81
2023/01/04 10:30:20;;;;;;;5.05;1.92;;;;;;;6.26;100.00;99890.47;5104189;28;20135;-79
2023/01/04 10:32:54;;;;;;;2.88;1.10;;;;;;;6.17;100.00;99866.03;5092909;28;20047;-81
2023/01/04 10:35:24;;;;;;;2.33;1.17;;;;;;;6.21;100.00;99866.59;5100443;28;20522;-80
2023/01/04 10:37:56;;;;;;;1.50;0.95;;;;;;;6.36;100.00;99872.44;5101566;28;20518;-80
2023/01/04 10:40:24;;;;;;;2.13;1.30;;;;;;;6.44;100.00;99855.53;5102691;28;20066;-79
2023/01/04 10:43:01;;;;;;;4.00;1.33;;;;;;;6.54;100.00;99872.59;5103444;27;20142;-79
2023/01/04 10:45:35;;;;;;;6.22;1.45;;;;;;;6.63;100.00;99865.50;5102423;28;20048;-79
2023/01/04 10:48:07;;;;;;;3.15;0.88;;;;;;;6.66;100.00;99846.28;5105475;28;20047;-79
2023/01/04 10:50:44;;;;;;;3.42;0.95;;;;;;;6.90;100.00;99872.88;5100606;28;20062;-79
2023/01/04 10:53:16;;;;;;;5.43;1.00;;;;;;;6.95;100.00;99851.66;5096751;28;20055;-79
2023/01/04 10:55:50;;;;;;;3.78;1.17;;;;;;;7.00;100.00;99843.97;5098767;28;20067;-79
2023/01/04 10:58:22;;;;;;;2.28;1.20;;;;;;;7.08;100.00;99848.66;5097939;28;20093;-79
2023/01/04 11:00:53;;;;;;;1.45;0.73;;;;;;;7.12;100.00;99825.72;5099964;28;20055;-80
2023/01/04 11:03:25;;;;;;;3.47;1.45;;;;;;;7.30;100.00;99836.66;5096305;28;20054;-80
2023/01/04 11:06:01;;;;;;;3.40;1.17;;;;;;;7.35;100.00;99823.50;5098314;28;20056;-79
2023/01/04 11:08:34;;;;;;;2.08;1.00;;;;;;;7.46;100.00;99827.88;5100571;28;20502;-80
2023/01/04 11:11:06;;;;;;;0.80;0.70;;;;;;;7.53;100.00;99822.75;5096304;28;20056;-80
2023/01/04 11:13:34;;;;;;;3.50;1.05;;;;;;;7.39;100.00;99799.72;5097083;28;20062;-80
2023/01/04 11:16:01;;;;;;;2.83;1.05;;;;;;;7.59;100.00;99814.03;5095333;28;21352;-80
2023/01/04 11:18:29;;;;;;;1.38;0.68;;;;;;;7.41;100.00;99789.63;5096082;28;20630;-79
2023/01/04 11:20:57;;;;;;;3.10;1.48;;;;;;;7.53;100.00;99817.34;5094827;28;20058;-79
2023/01/04 11:23:24;;;;;;;3.05;1.17;;;;;;;7.50;100.00;99799.53;5095933;28;20051;-80
2023/01/04 11:25:55;;;;;;;3.00;1.65;;;;;;;7.55;100.00;99812.63;5096825;28;20055;-80
2023/01/04 11:28:25;;;;;;;3.05;0.82;;;;;;;7.60;100.00;99816.59;5096364;28;20055;-80
2023/01/04 11:30:54;;;;;;;;;;;;;;;7.59;100.00;99828.41;5094052;28;20059;-78
2023/01/04 11:33:23;;;;;;;1.40;0.90;;;;;;;7.46;100.00;99811.66;5098229;28;19924;-78
2023/01/04 11:35:52;;;;;;;1.77;0.93;;;;;;;7.54;100.00;99828.00;5093275;28;20138;-78
2023/01/04 11:38:21;;;;;;;1.30;0.80;;;;;;;7.51;100.00;99809.38;5097156;28;20323;-79
2023/01/04 11:40:56;;;;;;;2.25;1.30;;;;;;;7.48;100.00;99806.09;5096204;28;20087;-79
2023/01/04 11:43:24;;;;;;;4.25;1.17;;;;;;;7.59;100.00;99822.97;5096297;28;20056;-79
2023/01/04 11:45:56;;;;;;;3.08;1.25;;;;;;;7.54;100.00;99813.59;5092581;28;20048;-79
2023/01/04 11:48:37;;;;;;;2.83;0.70;;;;;;;7.61;100.00;99814.72;5097337;28;20518;-78
2023/01/04 11:51:06;;;;;;;2.47;1.30;;;;;;;7.64;100.00;99816.28;5093418;28;20044;-79
2023/01/04 11:53:35;;;;;;;1.33;0.98;;;;;;;7.52;100.00;99802.09;5091445;28;20063;-79
2023/01/04 11:56:12;;;;;;;2.28;0.90;;;;;;;7.57;100.00;99816.00;5108191;28;20500;-79
2023/01/04 11:58:39;;;;;;;2.38;0.85;;;;;;;7.52;100.00;99810.22;5106687;28;20044;-80
2023/01/04 12:01:10;;;;;;;1.08;0.80;;;;;;;7.68;100.00;99818.53;5112978;28;20543;-79
2023/01/04 12:03:38;;;;;;;1.33;0.85;;;;;;;7.57;100.00;99811.47;5107740;28;20043;-79
2023/01/04 12:06:16;;;;;;;2.70;1.10;;;;;;;7.60;100.00;99827.41;5111881;27;20130;-79
2023/01/04 12:08:46;;;;;;;1.00;0.88;;;;;;;7.54;100.00;99809.06;5102543;28;20055;-79
2023/01/04 12:11:20;;;;;;;4.85;1.13;;;;;;;7.56;100.00;99804.34;5110492;28;20534;-79
2023/01/04 12:13:47;;;;;;;1.75;0.70;;;;;;;7.71;100.00;99820.09;5108422;28;20044;-79
2023/01/04 12:16:22;;;;;;;0.68;0.55;;;;;;;7.63;100.00;99820.81;5100703;28;20062;-79
2023/01/04 12:18:49;;;;;;;2.53;1.33;;;;;;;7.61;100.00;99802.03;5109404;28;20096;-79
2023/01/04 12:21:19;;;;;;;2.45;0.90;;;;;;;7.67;100.00;99816.81;5101248;28;20055;-79
2023/01/04 12:23:48;;;;;;;2.22;0.90;;;;;;;7.43;100.00;99784.91;5108432;28;20051;-79
2023/01/04 12:26:16;;;;;;;1.42;0.73;;;;;;;7.52;100.00;99799.38;5110649;28;20510;-79
2023/01/04 12:28:44;;;;;;;2.03;0.77;;;;;;;7.46;100.00;99814.34;5107312;28;20474;-79
2023/01/04 12:31:31;;;;;;;2.03;0.95;;;;;;;7.40;100.00;99786.03;5110237;28;20638;-79